createdAt,value
2018-01-16T00:00:46.571Z,6.95
2018-01-16T00:01:46.297Z,6.96
2018-01-16T00:02:46.510Z,6.95
2018-01-16T00:03:46.480Z,6.95
2018-01-16T00:04:46.209Z,6.95
2018-01-16T00:05:46.428Z,6.93
2018-01-16T00:06:46.397Z,7
2018-01-16T00:07:45.880Z,6.95
2018-01-16T00:08:46.344Z,6.93
2018-01-16T00:09:46.318Z,6.92
2018-01-16T00:10:46.293Z,7.02
2018-01-16T00:11:46.259Z,7.07
2018-01-16T00:12:46.229Z,7.06
2018-01-16T00:13:46.206Z,7.05
2018-01-16T00:14:46.177Z,7.02
2018-01-16T00:15:45.907Z,7.02
2018-01-16T00:16:46.122Z,7.15
2018-01-16T00:17:45.857Z,7.03
2018-01-16T00:18:46.077Z,7.03
2018-01-16T00:19:46.037Z,7.07
2018-01-16T00:20:45.769Z,7.11
2018-01-16T00:21:45.987Z,7.1
2018-01-16T00:22:45.962Z,7.06
2018-01-16T00:23:45.929Z,7.14
2018-01-16T00:24:45.906Z,7.18
2018-01-16T00:25:45.878Z,7.06
2018-01-16T00:26:45.603Z,7.11
2018-01-16T00:27:45.577Z,7.14
2018-01-16T00:28:45.552Z,7.17
2018-01-16T00:29:45.766Z,7.07
2018-01-16T00:30:45.736Z,7.11
2018-01-16T00:31:45.470Z,7.21
2018-01-16T00:32:45.683Z,7.17
2018-01-16T00:33:45.659Z,7.25
2018-01-16T00:34:45.629Z,7.15
2018-01-16T00:35:45.359Z,7.15
2018-01-16T00:36:45.578Z,7.15
2018-01-16T00:37:45.544Z,7.18
2018-01-16T00:38:45.273Z,7.17
2018-01-16T00:39:45.501Z,7.25
2018-01-16T00:40:45.219Z,7.23
2018-01-16T00:41:45.192Z,7.15
2018-01-16T00:42:45.413Z,7.14
2018-01-16T00:43:45.384Z,7.18
2018-01-16T00:44:45.354Z,7.17
2018-01-16T00:45:45.083Z,7.25
2018-01-16T00:46:45.301Z,7.15
2018-01-16T00:47:45.027Z,7.18
2018-01-16T00:48:44.754Z,7.17
2018-01-16T00:49:44.983Z,7.21
2018-01-16T00:50:45.191Z,7.17
2018-01-16T00:51:45.164Z,7.18
2018-01-16T00:52:45.135Z,7.18
2018-01-16T00:53:45.105Z,7.13
2018-01-16T00:54:44.835Z,7.21
2018-01-16T00:55:44.810Z,7.17
2018-01-16T00:56:45.029Z,7.15
2018-01-16T00:57:44.999Z,7.25
2018-01-16T00:58:44.997Z,7.2
2018-01-16T00:59:44.947Z,7.17
2018-01-16T01:00:44.920Z,7.15
2018-01-16T01:01:44.892Z,7.07
2018-01-16T01:02:44.869Z,7.14
2018-01-16T01:03:44.838Z,7.11
2018-01-16T01:04:44.811Z,7.13
2018-01-16T01:05:44.784Z,7.13
2018-01-16T01:06:44.755Z,7.11
2018-01-16T01:07:44.728Z,7.03
2018-01-16T01:08:44.701Z,7.05
2018-01-16T01:09:45.218Z,7.07
2018-01-16T01:10:44.644Z,6.95
2018-01-16T01:11:44.619Z,7.07
2018-01-16T01:12:44.344Z,6.96
2018-01-16T01:13:44.561Z,6.93
2018-01-16T01:14:44.541Z,6.88
2018-01-16T01:15:44.503Z,6.93
2018-01-16T01:16:44.476Z,6.88
2018-01-16T01:17:44.451Z,6.88
2018-01-16T01:18:44.491Z,6.92
2018-01-16T01:19:44.396Z,6.95
2018-01-16T01:20:44.373Z,6.96
2018-01-16T01:21:44.098Z,7.06
2018-01-16T01:22:44.313Z,6.92
2018-01-16T01:23:44.043Z,6.97
2018-01-16T01:24:43.770Z,6.89
2018-01-16T01:25:44.276Z,6.95
2018-01-16T01:26:44.202Z,7.02
2018-01-16T01:27:44.183Z,6.95
2018-01-16T01:28:43.899Z,6.89
2018-01-16T01:29:43.628Z,6.88
2018-01-16T01:30:44.089Z,6.92
2018-01-16T01:31:43.820Z,6.97
2018-01-16T01:32:43.790Z,6.96
2018-01-16T01:33:44.013Z,6.95
2018-01-16T01:34:43.980Z,6.96
2018-01-16T01:35:43.711Z,6.93
2018-01-16T01:36:43.941Z,6.99
2018-01-16T01:37:43.898Z,7
2018-01-16T01:38:43.872Z,6.88
2018-01-16T01:39:43.847Z,6.95
2018-01-16T01:40:43.573Z,6.92
2018-01-16T01:41:43.786Z,6.95
2018-01-16T01:42:43.762Z,6.93
2018-01-16T01:43:43.736Z,6.85
2018-01-16T01:44:43.712Z,6.84
2018-01-16T01:45:43.435Z,6.88
2018-01-16T01:46:43.408Z,6.89
2018-01-16T01:47:43.375Z,6.87
2018-01-16T01:48:43.354Z,6.88
2018-01-16T01:49:43.074Z,6.87
2018-01-16T01:50:43.587Z,6.75
2018-01-16T01:51:43.514Z,6.82
2018-01-16T01:52:43.486Z,6.75
2018-01-16T01:53:43.211Z,6.78
2018-01-16T01:54:43.431Z,6.81
2018-01-16T01:55:43.162Z,6.79
2018-01-16T01:56:43.379Z,6.84
2018-01-16T01:57:43.355Z,6.72
2018-01-16T01:58:43.078Z,6.79
2018-01-16T01:59:43.295Z,6.81
2018-01-16T02:00:43.263Z,6.75
2018-01-16T02:01:43.240Z,6.84
2018-01-16T02:02:42.963Z,6.82
2018-01-16T02:03:42.936Z,6.84
2018-01-16T02:04:43.207Z,6.79
2018-01-16T02:05:42.635Z,6.78
2018-01-16T02:06:43.101Z,6.79
2018-01-16T02:07:43.070Z,6.78
2018-01-16T02:08:43.042Z,6.72
2018-01-16T02:09:42.768Z,6.69
2018-01-16T02:10:42.986Z,6.74
2018-01-16T02:11:42.959Z,6.67
2018-01-16T02:12:42.940Z,6.72
2018-01-16T02:13:42.910Z,6.66
2018-01-16T02:14:42.872Z,6.67
2018-01-16T02:15:42.845Z,6.64
2018-01-16T02:16:42.820Z,6.79
2018-01-16T02:17:42.794Z,6.72
2018-01-16T02:18:42.872Z,6.74
2018-01-16T02:19:42.492Z,6.74
2018-01-16T02:20:42.711Z,6.77
2018-01-16T02:21:42.191Z,6.7
2018-01-16T02:22:42.651Z,6.78
2018-01-16T02:23:42.625Z,6.75
2018-01-16T02:24:42.605Z,6.7
2018-01-16T02:25:42.582Z,6.77
2018-01-16T02:26:42.548Z,6.74
2018-01-16T02:27:42.277Z,6.75
2018-01-16T02:28:42.488Z,6.7
2018-01-16T02:29:42.217Z,6.67
2018-01-16T02:30:42.435Z,6.72
2018-01-16T02:31:42.165Z,6.67
2018-01-16T02:32:42.140Z,6.74
2018-01-16T02:33:42.106Z,6.67
2018-01-16T02:34:42.326Z,6.75
2018-01-16T02:35:42.301Z,6.64
2018-01-16T02:36:42.268Z,6.67
2018-01-16T02:37:42.245Z,6.66
2018-01-16T02:38:42.211Z,6.66
2018-01-16T02:39:42.183Z,6.7
2018-01-16T02:40:42.162Z,6.54
2018-01-16T02:41:42.129Z,6.7
2018-01-16T02:42:42.102Z,6.63
2018-01-16T02:43:41.946Z,6.51
2018-01-16T02:44:41.801Z,6.64
2018-01-16T02:45:42.023Z,6.67
2018-01-16T02:46:42.038Z,6.56
2018-01-16T02:47:41.969Z,6.67
2018-01-16T02:48:41.936Z,6.66
2018-01-16T02:49:41.913Z,6.67
2018-01-16T02:50:41.885Z,6.59
2018-01-16T02:51:41.611Z,6.72
2018-01-16T02:52:41.834Z,6.63
2018-01-16T02:53:41.550Z,6.69
2018-01-16T02:54:41.282Z,6.69
2018-01-16T02:55:41.745Z,6.63
2018-01-16T02:56:41.472Z,6.66
2018-01-16T02:57:41.687Z,6.67
2018-01-16T02:58:41.415Z,6.67
2018-01-16T02:59:41.388Z,6.59
2018-01-16T03:00:41.610Z,6.54
2018-01-16T03:01:41.342Z,6.54
2018-01-16T03:02:41.309Z,6.63
2018-01-16T03:03:41.532Z,6.63
2018-01-16T03:04:41.505Z,6.7
2018-01-16T03:05:41.225Z,6.6
2018-01-16T03:06:41.446Z,6.66
2018-01-16T03:07:41.173Z,6.51
2018-01-16T03:08:41.146Z,6.69
2018-01-16T03:09:41.364Z,6.66
2018-01-16T03:10:41.293Z,6.69
2018-01-16T03:11:41.068Z,6.64
2018-01-16T03:12:41.281Z,6.56
2018-01-16T03:13:41.254Z,6.6
2018-01-16T03:14:41.224Z,6.59
2018-01-16T03:15:41.204Z,6.74
2018-01-16T03:16:41.173Z,6.66
2018-01-16T03:17:41.147Z,6.63
2018-01-16T03:18:40.874Z,6.66
2018-01-16T03:19:41.094Z,6.59
2018-01-16T03:20:41.061Z,6.57
2018-01-16T03:21:41.038Z,6.57
2018-01-16T03:22:41.011Z,6.62
2018-01-16T03:23:40.982Z,6.62
2018-01-16T03:24:40.960Z,6.67
2018-01-16T03:25:40.932Z,6.6
2018-01-16T03:26:40.656Z,6.66
2018-01-16T03:27:40.878Z,6.67
2018-01-16T03:28:40.852Z,6.69
2018-01-16T03:29:40.825Z,6.49
2018-01-16T03:30:40.808Z,6.63
2018-01-16T03:31:40.770Z,6.59
2018-01-16T03:32:40.492Z,6.63
2018-01-16T03:33:40.715Z,6.64
2018-01-16T03:34:40.690Z,6.62
2018-01-16T03:35:40.660Z,6.62
2018-01-16T03:36:40.635Z,6.64
2018-01-16T03:37:40.609Z,6.66
2018-01-16T03:38:40.573Z,6.63
2018-01-16T03:39:40.567Z,6.59
2018-01-16T03:40:40.521Z,6.64
2018-01-16T03:41:40.252Z,6.59
2018-01-16T03:42:40.474Z,6.63
2018-01-16T03:43:40.471Z,6.66
2018-01-16T03:44:40.416Z,6.7
2018-01-16T03:45:40.389Z,6.66
2018-01-16T03:46:40.119Z,6.66
2018-01-16T03:47:40.337Z,6.66
2018-01-16T03:48:40.310Z,6.69
2018-01-16T03:49:40.283Z,6.64
2018-01-16T03:50:40.011Z,6.7
2018-01-16T03:51:40.227Z,6.7
2018-01-16T03:52:40.209Z,6.67
2018-01-16T03:53:40.179Z,6.69
2018-01-16T03:54:40.153Z,6.69
2018-01-16T03:55:39.874Z,6.72
2018-01-16T03:56:40.097Z,6.75
2018-01-16T03:57:40.070Z,6.74
2018-01-16T03:58:39.551Z,6.75
2018-01-16T03:59:40.018Z,6.77
2018-01-16T04:00:39.742Z,6.7
2018-01-16T04:01:39.969Z,6.81
2018-01-16T04:02:39.944Z,6.85
2018-01-16T04:03:39.662Z,6.79
2018-01-16T04:04:39.390Z,6.78
2018-01-16T04:05:39.906Z,6.75
2018-01-16T04:06:39.829Z,6.79
2018-01-16T04:07:39.806Z,6.78
2018-01-16T04:08:39.776Z,6.84
2018-01-16T04:09:39.744Z,6.84
2018-01-16T04:10:39.476Z,6.75
2018-01-16T04:11:39.447Z,6.78
2018-01-16T04:12:39.421Z,6.75
2018-01-16T04:13:39.642Z,6.79
2018-01-16T04:14:39.367Z,6.79
2018-01-16T04:15:39.594Z,6.78
2018-01-16T04:16:39.562Z,6.84
2018-01-16T04:17:39.283Z,6.88
2018-01-16T04:18:39.509Z,6.78
2018-01-16T04:19:39.480Z,6.79
2018-01-16T04:20:39.450Z,6.72
2018-01-16T04:21:39.178Z,6.7
2018-01-16T04:22:39.396Z,6.69
2018-01-16T04:23:39.373Z,6.72
2018-01-16T04:24:39.343Z,6.7
2018-01-16T04:25:39.073Z,6.67
2018-01-16T04:26:38.799Z,6.62
2018-01-16T04:27:39.267Z,6.57
2018-01-16T04:28:39.242Z,6.66
2018-01-16T04:29:39.205Z,6.62
2018-01-16T04:30:39.182Z,6.66
2018-01-16T04:31:39.152Z,6.57
2018-01-16T04:32:39.127Z,6.52
2018-01-16T04:33:39.103Z,6.69
2018-01-16T04:34:38.827Z,6.54
2018-01-16T04:35:39.042Z,6.48
2018-01-16T04:36:38.774Z,6.44
2018-01-16T04:37:38.993Z,6.41
2018-01-16T04:38:38.716Z,6.27
2018-01-16T04:39:38.934Z,6.26
2018-01-16T04:40:38.914Z,6.16
2018-01-16T04:41:38.887Z,6.19
2018-01-16T04:42:38.858Z,6.17
2018-01-16T04:43:38.581Z,6.14
2018-01-16T04:44:38.893Z,6.05
2018-01-16T04:45:38.773Z,6.12
2018-01-16T04:46:38.746Z,6.04
2018-01-16T04:47:38.720Z,6.04
2018-01-16T04:48:38.692Z,6.07
2018-01-16T04:49:38.664Z,5.98
2018-01-16T04:50:38.636Z,6.05
2018-01-16T04:51:38.362Z,6.04
2018-01-16T04:52:38.582Z,6.01
2018-01-16T04:53:38.552Z,5.97
2018-01-16T04:54:38.522Z,6.02
2018-01-16T04:55:38.267Z,6.07
2018-01-16T04:56:38.469Z,5.93
2018-01-16T04:57:38.438Z,6.05
2018-01-16T04:58:38.418Z,5.99
2018-01-16T04:59:38.392Z,5.93
2018-01-16T05:00:38.359Z,5.91
2018-01-16T05:01:38.334Z,5.98
2018-01-16T05:02:38.307Z,5.89
2018-01-16T05:03:38.284Z,5.98
2018-01-16T05:04:38.247Z,5.97
2018-01-16T05:05:38.222Z,6.07
2018-01-16T05:06:37.948Z,6.01
2018-01-16T05:07:38.162Z,6.07
2018-01-16T05:08:38.143Z,6.07
2018-01-16T05:09:37.862Z,6.07
2018-01-16T05:10:38.078Z,6.09
2018-01-16T05:11:38.054Z,6.2
2018-01-16T05:12:37.779Z,6.2
2018-01-16T05:13:37.752Z,6.19
2018-01-16T05:14:37.971Z,6.27
2018-01-16T05:15:37.697Z,6.26
2018-01-16T05:16:37.913Z,6.27
2018-01-16T05:17:37.643Z,6.48
2018-01-16T05:18:37.859Z,6.44
2018-01-16T05:19:37.584Z,6.45
2018-01-16T05:20:37.811Z,6.49
2018-01-16T05:21:37.784Z,6.45
2018-01-16T05:22:37.507Z,6.48
2018-01-16T05:23:37.722Z,6.59
2018-01-16T05:24:37.695Z,6.59
2018-01-16T05:25:37.178Z,6.69
2018-01-16T05:26:37.638Z,6.62
2018-01-16T05:27:37.630Z,6.63
2018-01-16T05:28:37.341Z,6.57
2018-01-16T05:29:37.317Z,6.54
2018-01-16T05:30:37.529Z,6.62
2018-01-16T05:31:37.501Z,6.62
2018-01-16T05:32:37.535Z,6.59
2018-01-16T05:33:36.955Z,6.66
2018-01-16T05:34:37.173Z,6.64
2018-01-16T05:35:37.390Z,6.64
2018-01-16T05:36:37.366Z,6.6
2018-01-16T05:37:37.341Z,6.74
2018-01-16T05:38:37.311Z,6.7
2018-01-16T05:39:37.290Z,6.67
2018-01-16T05:40:37.255Z,6.67
2018-01-16T05:41:37.230Z,6.77
2018-01-16T05:42:37.209Z,6.72
2018-01-16T05:43:37.180Z,6.74
2018-01-16T05:44:37.148Z,6.75
2018-01-16T05:45:37.123Z,6.72
2018-01-16T05:46:37.194Z,6.74
2018-01-16T05:47:37.066Z,6.77
2018-01-16T05:48:36.802Z,6.67
2018-01-16T05:49:37.010Z,6.66
2018-01-16T05:50:36.985Z,6.6
2018-01-16T05:51:36.711Z,6.48
2018-01-16T05:52:37.068Z,6.26
2018-01-16T05:53:36.905Z,6.01
2018-01-16T05:54:36.877Z,5.93
2018-01-16T05:55:36.849Z,5.89
2018-01-16T05:56:36.826Z,5.69
2018-01-16T05:57:36.792Z,5.57
2018-01-16T05:58:36.767Z,5.5
2018-01-16T05:59:36.739Z,5.29
2018-01-16T06:00:36.708Z,5.26
2018-01-16T06:01:36.683Z,5.14
2018-01-16T06:02:36.652Z,5.17
2018-01-16T06:03:36.619Z,5.23
2018-01-16T06:04:36.597Z,5.15
2018-01-16T06:05:36.565Z,5.17
2018-01-16T06:06:36.542Z,5.28
2018-01-16T06:07:36.516Z,5.32
2018-01-16T06:08:36.485Z,5.3
2018-01-16T06:09:36.459Z,5.29
2018-01-16T06:10:36.427Z,5.41
2018-01-16T06:11:36.397Z,5.43
2018-01-16T06:12:36.371Z,5.53
2018-01-16T06:13:36.393Z,5.54
2018-01-16T06:14:36.311Z,5.59
2018-01-16T06:15:36.045Z,5.66
2018-01-16T06:16:36.261Z,5.66
2018-01-16T06:17:36.227Z,5.66
2018-01-16T06:18:35.713Z,5.69
2018-01-16T06:19:36.181Z,5.75
2018-01-16T06:20:35.902Z,5.76
2018-01-16T06:21:36.117Z,5.87
2018-01-16T06:22:36.091Z,5.99
2018-01-16T06:23:35.826Z,6.01
2018-01-16T06:24:35.790Z,6.02
2018-01-16T06:25:36.009Z,6.07
2018-01-16T06:26:35.981Z,6.12
2018-01-16T06:27:35.953Z,6.11
2018-01-16T06:28:35.927Z,6.16
2018-01-16T06:29:35.892Z,6.17
2018-01-16T06:30:35.877Z,6.22
2018-01-16T06:31:36.258Z,6.12
2018-01-16T06:32:36.247Z,6.14
2018-01-16T06:33:36.142Z,6.16
2018-01-16T06:34:36.477Z,6.11
2018-01-16T06:35:35.544Z,6.16
2018-01-16T06:36:35.704Z,6.17
2018-01-16T06:37:35.671Z,6.12
2018-01-16T06:38:35.408Z,6.11
2018-01-16T06:39:35.623Z,6.17
2018-01-16T06:40:35.601Z,6.19
2018-01-16T06:41:35.315Z,6.17
2018-01-16T06:42:35.536Z,6.17
2018-01-16T06:43:35.604Z,6.11
2018-01-16T06:44:35.490Z,6.22
2018-01-16T06:45:35.453Z,6.12
2018-01-16T06:46:35.433Z,6.16
2018-01-16T06:47:35.433Z,6.19
2018-01-16T06:48:35.123Z,6.11
2018-01-16T06:49:35.346Z,6.28
2018-01-16T06:50:35.311Z,6.22
2018-01-16T06:51:35.045Z,6.27
2018-01-16T06:52:35.260Z,6.35
2018-01-16T06:53:35.233Z,6.31
2018-01-16T06:54:35.207Z,6.3
2018-01-16T06:55:34.930Z,6.35
2018-01-16T06:56:34.905Z,6.3
2018-01-16T06:57:35.126Z,6.3
2018-01-16T06:58:34.846Z,6.27
2018-01-16T06:59:35.067Z,6.31
2018-01-16T07:00:34.700Z,6.28
2018-01-16T07:01:35.015Z,6.31
2018-01-16T07:02:34.493Z,6.33
2018-01-16T07:03:34.954Z,6.35
2018-01-16T07:04:34.929Z,6.33
2018-01-16T07:05:34.898Z,6.24
2018-01-16T07:06:34.878Z,6.28
2018-01-16T07:07:34.846Z,6.3
2018-01-16T07:08:34.815Z,6.38
2018-01-16T07:09:34.794Z,6.31
2018-01-16T07:10:34.767Z,6.39
2018-01-16T07:11:34.838Z,6.36
2018-01-16T07:12:34.704Z,6.38
2018-01-16T07:13:34.684Z,6.31
2018-01-16T07:14:34.651Z,6.28
2018-01-16T07:15:34.387Z,6.28
2018-01-16T07:16:34.599Z,6.28
2018-01-16T07:17:34.571Z,6.39
2018-01-16T07:18:34.544Z,6.36
2018-01-16T07:19:34.514Z,6.44
2018-01-16T07:20:34.241Z,6.3
2018-01-16T07:21:34.460Z,6.35
2018-01-16T07:22:34.544Z,6.17
2018-01-16T07:23:34.160Z,6.05
2018-01-16T07:24:34.378Z,5.86
2018-01-16T07:25:34.348Z,5.8
2018-01-16T07:26:34.083Z,5.68
2018-01-16T07:27:34.047Z,5.66
2018-01-16T07:28:34.261Z,5.54
2018-01-16T07:29:34.243Z,5.46
2018-01-16T07:30:34.208Z,5.51
2018-01-16T07:31:34.182Z,5.48
2018-01-16T07:32:34.150Z,5.48
2018-01-16T07:33:34.131Z,5.5
2018-01-16T07:34:33.853Z,5.48
2018-01-16T07:35:33.825Z,5.56
2018-01-16T07:36:34.037Z,5.57
2018-01-16T07:37:34.009Z,5.66
2018-01-16T07:38:33.987Z,5.65
2018-01-16T07:39:33.961Z,5.65
2018-01-16T07:40:33.928Z,5.66
2018-01-16T07:41:33.899Z,5.71
2018-01-16T07:42:33.623Z,5.71
2018-01-16T07:43:33.846Z,5.75
2018-01-16T07:44:33.814Z,5.75
2018-01-16T07:45:33.542Z,5.76
2018-01-16T07:46:33.515Z,5.86
2018-01-16T07:47:33.487Z,5.86
2018-01-16T07:48:33.707Z,5.86
2018-01-16T07:49:33.676Z,5.94
2018-01-16T07:50:33.648Z,5.99
2018-01-16T07:51:33.380Z,6.07
2018-01-16T07:52:33.345Z,6.12
2018-01-16T07:53:33.565Z,6.11
2018-01-16T07:54:33.287Z,6.12
2018-01-16T07:55:33.512Z,6.19
2018-01-16T07:56:33.486Z,6.12
2018-01-16T07:57:33.213Z,6.24
2018-01-16T07:58:33.419Z,6.12
2018-01-16T07:59:33.397Z,6.26
2018-01-16T08:00:33.122Z,6.27
2018-01-16T08:01:33.343Z,6.28
2018-01-16T08:02:33.315Z,6.36
2018-01-16T08:03:33.284Z,6.33
2018-01-16T08:04:33.266Z,6.27
2018-01-16T08:05:33.226Z,6.28
2018-01-16T08:06:33.940Z,6.27
2018-01-16T08:07:33.234Z,6.17
2018-01-16T08:08:33.644Z,6.12
2018-01-16T08:09:33.290Z,6.14
2018-01-16T08:10:34.668Z,6.17
2018-01-16T08:11:34.142Z,6.17
2018-01-16T08:12:33.965Z,6.14
2018-01-16T08:13:33.106Z,6.09
2018-01-16T08:14:32.756Z,6.09
2018-01-16T08:15:34.079Z,6.14
2018-01-16T08:16:34.018Z,6.09
2018-01-16T08:17:34.333Z,6.09
2018-01-16T08:18:34.226Z,6.12
2018-01-16T08:19:34.302Z,6.16
2018-01-16T08:20:34.332Z,6.08
2018-01-16T08:21:34.701Z,6.04
2018-01-16T08:22:34.482Z,6.01
2018-01-16T08:23:33.665Z,6.02
2018-01-16T08:24:34.011Z,5.99
2018-01-16T08:25:33.623Z,6.01
2018-01-16T08:26:34.160Z,6.04
2018-01-16T08:27:33.737Z,6.07
2018-01-16T08:28:34.440Z,6.01
2018-01-16T08:29:34.626Z,6.04
2018-01-16T08:30:34.428Z,5.98
2018-01-16T08:31:33.865Z,5.99
2018-01-16T08:32:33.829Z,5.99
2018-01-16T08:33:34.231Z,6.02
2018-01-16T08:34:33.755Z,6.04
2018-01-16T08:35:34.268Z,6.07
2018-01-16T08:36:34.068Z,6.05
2018-01-16T08:37:33.655Z,6.09
2018-01-16T08:38:33.589Z,6.07
2018-01-16T08:39:33.538Z,6.02
2018-01-16T08:40:33.711Z,6.12
2018-01-16T08:41:33.366Z,6.09
2018-01-16T08:42:33.526Z,6.12
2018-01-16T08:43:33.428Z,6.16
2018-01-16T08:44:33.467Z,6.17
2018-01-16T08:45:33.869Z,6.28
2018-01-16T08:46:33.705Z,6.24
2018-01-16T08:47:33.113Z,6.28
2018-01-16T08:48:33.527Z,6.27
2018-01-16T08:49:33.486Z,6.41
2018-01-16T08:50:33.597Z,6.44
2018-01-16T08:51:33.417Z,6.56
2018-01-16T08:52:33.147Z,6.46
2018-01-16T08:53:33.010Z,6.49
2018-01-16T08:54:33.560Z,6.46
2018-01-16T08:55:33.303Z,6.56
2018-01-16T08:56:32.974Z,6.49
2018-01-16T08:57:33.666Z,6.54
2018-01-16T08:58:33.658Z,6.56
2018-01-16T08:59:33.577Z,6.69
2018-01-16T09:00:33.274Z,6.72
2018-01-16T09:01:33.244Z,6.7
2018-01-16T09:02:33.283Z,6.77
2018-01-16T09:03:33.373Z,6.79
2018-01-16T09:04:33.430Z,6.79
2018-01-16T09:05:32.911Z,6.79
2018-01-16T09:06:33.005Z,6.69
2018-01-16T09:07:32.821Z,6.67
2018-01-16T09:08:33.182Z,6.67
2018-01-16T09:09:33.270Z,6.69
2018-01-16T09:10:33.412Z,6.64
2018-01-16T09:11:32.311Z,6.62
2018-01-16T09:12:32.723Z,6.66
2018-01-16T09:13:32.834Z,6.63
2018-01-16T09:14:31.344Z,6.67
2018-01-16T09:15:31.377Z,6.67
2018-01-16T09:16:31.295Z,6.66
2018-01-16T09:17:31.262Z,6.67
2018-01-16T09:18:30.995Z,6.7
2018-01-16T09:19:31.213Z,6.69
2018-01-16T09:20:31.183Z,6.79
2018-01-16T09:21:31.163Z,6.66
2018-01-16T09:22:31.131Z,6.69
2018-01-16T09:23:31.106Z,6.69
2018-01-16T09:24:31.084Z,6.7
2018-01-16T09:25:31.057Z,6.74
2018-01-16T09:26:31.029Z,6.75
2018-01-16T09:27:30.754Z,6.78
2018-01-16T09:28:30.973Z,6.7
2018-01-16T09:29:30.698Z,6.82
2018-01-16T09:30:30.966Z,6.84
2018-01-16T09:31:30.913Z,6.78
2018-01-16T09:32:30.866Z,6.85
2018-01-16T09:33:30.835Z,6.84
2018-01-16T09:34:30.808Z,6.93
2018-01-16T09:35:30.781Z,6.92
2018-01-16T09:36:30.775Z,6.87
2018-01-16T09:37:30.726Z,6.97
2018-01-16T09:38:30.451Z,6.88
2018-01-16T09:39:30.427Z,6.84
2018-01-16T09:40:30.398Z,6.84
2018-01-16T09:41:30.598Z,6.82
2018-01-16T09:42:30.344Z,6.88
2018-01-16T09:43:30.569Z,6.88
2018-01-16T09:44:30.543Z,6.96
2018-01-16T09:45:30.507Z,6.85
2018-01-16T09:46:30.482Z,6.85
2018-01-16T09:47:30.460Z,6.87
2018-01-16T09:48:30.187Z,6.95
2018-01-16T09:49:30.406Z,6.96
2018-01-16T09:50:30.385Z,6.93
2018-01-16T09:51:30.350Z,6.95
2018-01-16T09:52:29.831Z,6.93
2018-01-16T09:53:30.053Z,6.92
2018-01-16T09:54:30.306Z,6.89
2018-01-16T09:55:30.239Z,6.85
2018-01-16T09:56:30.219Z,6.89
2018-01-16T09:57:30.193Z,6.89
2018-01-16T09:58:30.165Z,6.89
2018-01-16T09:59:29.891Z,6.44
2018-01-16T10:00:30.108Z,5.54
2018-01-16T10:01:29.838Z,4.73
2018-01-16T10:02:30.108Z,4.08
2018-01-16T10:03:30.271Z,3.68
2018-01-16T10:04:30.353Z,3.34
2018-01-16T10:05:30.346Z,3.13
2018-01-16T10:06:29.950Z,2.87
2018-01-16T10:07:29.420Z,2.77
2018-01-16T10:08:29.637Z,2.82
2018-01-16T10:09:30.212Z,2.77
2018-01-16T10:10:29.616Z,2.67
2018-01-16T10:11:30.293Z,2.69
2018-01-16T10:12:29.770Z,2.67
2018-01-16T10:13:29.493Z,2.64
2018-01-16T10:14:29.718Z,2.67
2018-01-16T10:15:29.866Z,2.65
2018-01-16T10:16:29.643Z,2.65
2018-01-16T10:17:29.372Z,2.65
2018-01-16T10:18:29.344Z,2.68
2018-01-16T10:19:29.553Z,2.68
2018-01-16T10:20:29.531Z,2.67
2018-01-16T10:21:29.549Z,2.74
2018-01-16T10:22:29.465Z,2.83
2018-01-16T10:23:29.435Z,2.69
2018-01-16T10:24:28.914Z,2.8
2018-01-16T10:25:29.375Z,2.79
2018-01-16T10:26:29.346Z,2.82
2018-01-16T10:27:29.318Z,2.75
2018-01-16T10:28:29.288Z,2.86
2018-01-16T10:29:29.839Z,2.86
2018-01-16T10:30:29.232Z,2.9
2018-01-16T10:31:29.198Z,2.9
2018-01-16T10:32:29.167Z,3.04
2018-01-16T10:33:28.889Z,2.95
2018-01-16T10:34:28.863Z,2.97
2018-01-16T10:35:29.103Z,3.07
2018-01-16T10:36:29.044Z,2.97
2018-01-16T10:37:28.870Z,3.04
2018-01-16T10:38:28.990Z,3.08
2018-01-16T10:39:28.714Z,3.11
2018-01-16T10:40:28.923Z,3.18
2018-01-16T10:41:28.899Z,3.13
2018-01-16T10:42:29.228Z,3.26
2018-01-16T10:43:28.840Z,3.26
2018-01-16T10:44:28.811Z,3.34
2018-01-16T10:45:29.161Z,3.28
2018-01-16T10:46:28.756Z,3.4
2018-01-16T10:47:28.720Z,3.36
2018-01-16T10:48:28.690Z,3.41
2018-01-16T10:49:28.661Z,3.4
2018-01-16T10:50:28.632Z,3.37
2018-01-16T10:51:28.605Z,3.47
2018-01-16T10:52:28.569Z,3.5
2018-01-16T10:53:28.545Z,3.48
2018-01-16T10:54:28.516Z,3.47
2018-01-16T10:55:28.488Z,3.44
2018-01-16T10:56:27.965Z,3.45
2018-01-16T10:57:27.936Z,3.47
2018-01-16T10:58:28.440Z,3.48
2018-01-16T10:59:28.368Z,3.45
2018-01-16T11:00:28.096Z,3.55
2018-01-16T11:01:28.314Z,3.56
2018-01-16T11:02:28.035Z,3.53
2018-01-16T11:03:28.011Z,3.56
2018-01-16T11:04:27.979Z,3.65
2018-01-16T11:05:28.193Z,3.66
2018-01-16T11:06:27.919Z,3.73
2018-01-16T11:07:28.137Z,3.65
2018-01-16T11:08:28.104Z,3.69
2018-01-16T11:09:28.074Z,3.8
2018-01-16T11:10:28.052Z,3.77
2018-01-16T11:11:28.632Z,3.74
2018-01-16T11:12:27.990Z,3.8
2018-01-16T11:13:28.087Z,3.77
2018-01-16T11:14:27.686Z,3.83
2018-01-16T11:15:27.903Z,3.78
2018-01-16T11:16:27.627Z,3.87
2018-01-16T11:17:27.844Z,3.92
2018-01-16T11:18:27.570Z,3.99
2018-01-16T11:19:27.545Z,3.94
2018-01-16T11:20:27.763Z,4.06
2018-01-16T11:21:27.487Z,4.08
2018-01-16T11:22:27.706Z,4.16
2018-01-16T11:23:27.671Z,4.2
2018-01-16T11:24:27.256Z,4.24
2018-01-16T11:25:27.625Z,4.32
2018-01-16T11:26:27.346Z,4.35
2018-01-16T11:27:27.562Z,4.35
2018-01-16T11:28:27.528Z,4.35
2018-01-16T11:29:27.510Z,4.48
2018-01-16T11:30:27.478Z,4.48
2018-01-16T11:31:28.045Z,4.45
2018-01-16T11:32:27.176Z,4.48
2018-01-16T11:33:27.549Z,4.5
2018-01-16T11:34:27.117Z,4.56
2018-01-16T11:35:27.335Z,4.52
2018-01-16T11:36:27.309Z,4.63
2018-01-16T11:37:27.282Z,4.6
2018-01-16T11:38:27.253Z,4.59
2018-01-16T11:39:26.975Z,4.58
2018-01-16T11:40:26.944Z,4.58
2018-01-16T11:41:27.166Z,4.55
2018-01-16T11:42:27.137Z,4.56
2018-01-16T11:43:27.113Z,4.6
2018-01-16T11:44:26.598Z,4.7
2018-01-16T11:45:27.055Z,4.66
2018-01-16T11:46:27.021Z,4.7
2018-01-16T11:47:27.003Z,4.75
2018-01-16T11:48:26.965Z,4.78
2018-01-16T11:49:26.698Z,4.78
2018-01-16T11:50:26.913Z,4.73
2018-01-16T11:51:26.884Z,4.75
2018-01-16T11:52:26.854Z,4.73
2018-01-16T11:53:26.822Z,4.74
2018-01-16T11:54:26.304Z,4.77
2018-01-16T11:55:26.767Z,4.71
2018-01-16T11:56:26.740Z,4.66
2018-01-16T11:57:26.760Z,4.68
2018-01-16T11:58:26.439Z,4.7
2018-01-16T11:59:26.408Z,4.7
2018-01-16T12:00:26.635Z,4.63
2018-01-16T12:01:26.351Z,4.67
2018-01-16T12:02:26.574Z,4.74
2018-01-16T12:03:26.540Z,4.8
2018-01-16T12:04:26.266Z,4.71
2018-01-16T12:05:26.236Z,4.73
2018-01-16T12:06:26.273Z,4.78
2018-01-16T12:07:26.182Z,4.89
2018-01-16T12:08:26.792Z,4.87
2018-01-16T12:09:26.369Z,4.86
2018-01-16T12:10:26.341Z,4.96
2018-01-16T12:11:26.315Z,4.99
2018-01-16T12:12:25.791Z,5.07
2018-01-16T12:13:25.763Z,5.05
2018-01-16T12:14:26.229Z,5.1
2018-01-16T12:15:25.951Z,5
2018-01-16T12:16:26.180Z,5.1
2018-01-16T12:17:26.144Z,5.14
2018-01-16T12:18:26.115Z,5.17
2018-01-16T12:19:26.086Z,5.14
2018-01-16T12:20:26.062Z,5.11
2018-01-16T12:21:26.035Z,5.12
2018-01-16T12:22:25.758Z,5.14
2018-01-16T12:23:25.971Z,5.15
2018-01-16T12:24:25.697Z,5.14
2018-01-16T12:25:25.673Z,5.14
2018-01-16T12:26:25.478Z,5.18
2018-01-16T12:27:25.865Z,5.14
2018-01-16T12:28:25.598Z,5.18
2018-01-16T12:29:25.563Z,5.14
2018-01-16T12:30:25.781Z,5.11
2018-01-16T12:31:25.753Z,5.17
2018-01-16T12:32:25.724Z,5.25
2018-01-16T12:33:25.696Z,5.17
2018-01-16T12:34:25.416Z,5.23
2018-01-16T12:35:26.295Z,5.28
2018-01-16T12:36:25.836Z,5.29
2018-01-16T12:37:25.583Z,5.3
2018-01-16T12:38:25.306Z,5.23
2018-01-16T12:39:25.285Z,5.29
2018-01-16T12:40:25.495Z,5.32
2018-01-16T12:41:25.465Z,5.35
2018-01-16T12:42:25.444Z,5.29
2018-01-16T12:43:25.413Z,5.33
2018-01-16T12:44:25.140Z,5.3
2018-01-16T12:45:25.117Z,5.33
2018-01-16T12:46:25.085Z,5.44
2018-01-16T12:47:25.298Z,5.3
2018-01-16T12:48:25.319Z,5.3
2018-01-16T12:49:24.965Z,5.3
2018-01-16T12:50:24.969Z,5.32
2018-01-16T12:51:25.183Z,5.33
2018-01-16T12:52:24.916Z,5.41
2018-01-16T12:53:25.131Z,5.44
2018-01-16T12:54:25.100Z,5.43
2018-01-16T12:55:24.828Z,5.46
2018-01-16T12:56:25.047Z,5.43
2018-01-16T12:57:24.780Z,5.5
2018-01-16T12:58:24.503Z,5.53
2018-01-16T12:59:24.721Z,5.64
2018-01-16T13:00:24.694Z,5.59
2018-01-16T13:01:24.662Z,5.64
2018-01-16T13:02:24.890Z,5.65
2018-01-16T13:03:24.610Z,5.65
2018-01-16T13:04:24.828Z,5.56
2018-01-16T13:05:24.802Z,5.64
2018-01-16T13:06:24.806Z,5.68
2018-01-16T13:07:24.499Z,5.69
2018-01-16T13:08:24.716Z,5.68
2018-01-16T13:09:24.699Z,5.62
2018-01-16T13:10:24.715Z,5.65
2018-01-16T13:11:24.632Z,5.62
2018-01-16T13:12:24.605Z,5.68
2018-01-16T13:13:25.165Z,5.68
2018-01-16T13:14:24.555Z,5.59
2018-01-16T13:15:24.279Z,5.59
2018-01-16T13:16:24.493Z,5.56
2018-01-16T13:17:24.473Z,5.53
2018-01-16T13:18:24.200Z,5.5
2018-01-16T13:19:24.411Z,5.56
2018-01-16T13:20:24.389Z,5.59